createdAt,value
2018-09-19T00:00:49.721Z,99.99
2018-09-19T00:01:49.685Z,99.99
2018-09-19T00:02:49.677Z,99.99
2018-09-19T00:03:49.666Z,99.99
2018-09-19T00:04:49.649Z,99.99
2018-09-19T00:05:49.654Z,99.99
2018-09-19T00:06:49.656Z,99.99
2018-09-19T00:07:49.612Z,99.99
2018-09-19T00:08:49.595Z,99.99
2018-09-19T00:09:49.580Z,99.99
2018-09-19T00:10:49.567Z,99.99
2018-09-19T00:11:49.557Z,99.99
2018-09-19T00:12:49.561Z,99.99
2018-09-19T00:13:49.533Z,99.99
2018-09-19T00:14:49.551Z,99.99
2018-09-19T00:15:49.503Z,99.99
2018-09-19T00:16:49.496Z,99.99
2018-09-19T00:17:49.491Z,99.99
2018-09-19T00:18:49.457Z,99.99
2018-09-19T00:19:49.459Z,99.99
2018-09-19T00:20:49.436Z,99.99
2018-09-19T00:21:49.444Z,99.99
2018-09-19T00:22:49.423Z,99.99
2018-09-19T00:23:49.394Z,99.99
2018-09-19T00:24:49.379Z,99.99
2018-09-19T00:25:49.360Z,99.99
2018-09-19T00:26:49.350Z,99.99
2018-09-19T00:27:49.355Z,99.99
2018-09-19T00:28:49.321Z,99.99
2018-09-19T00:29:49.309Z,99.99
2018-09-19T00:30:49.290Z,99.99
2018-09-19T00:31:49.277Z,99.99
2018-09-19T00:32:49.283Z,99.99
2018-09-19T00:33:49.251Z,99.99
2018-09-19T00:34:49.240Z,99.99
2018-09-19T00:35:49.250Z,99.99
2018-09-19T00:36:49.210Z,99.99
2018-09-19T00:37:49.198Z,99.99
2018-09-19T00:38:49.284Z,99.99
2018-09-19T00:39:49.170Z,99.99
2018-09-19T00:40:49.154Z,99.99
2018-09-19T00:41:49.142Z,99.99
2018-09-19T00:42:49.127Z,99.99
2018-09-19T00:43:49.132Z,99.99
2018-09-19T00:44:49.105Z,99.99
2018-09-19T00:45:49.084Z,99.99
2018-09-19T00:46:49.072Z,99.99
2018-09-19T00:47:49.055Z,99.99
2018-09-19T00:48:49.060Z,99.99
2018-09-19T00:49:49.033Z,99.99
2018-09-19T00:50:49.020Z,99.99
2018-09-19T00:51:48.997Z,99.99
2018-09-19T00:52:49.001Z,99.99
2018-09-19T00:53:48.971Z,99.99
2018-09-19T00:55:09.973Z,99.99
2018-09-19T00:55:48.954Z,99.99
2018-09-19T00:56:48.948Z,99.99
2018-09-19T00:57:48.916Z,99.99
2018-09-19T00:58:48.911Z,99.99
2018-09-19T00:59:48.885Z,99.99
2018-09-19T01:00:48.884Z,99.99
2018-09-19T01:01:48.857Z,99.99
2018-09-19T01:02:48.850Z,99.99
2018-09-19T01:03:48.845Z,99.99
2018-09-19T01:04:48.855Z,99.99
2018-09-19T01:05:48.819Z,99.99
2018-09-19T01:06:48.787Z,99.99
2018-09-19T01:07:48.770Z,99.99
2018-09-19T01:08:48.776Z,99.99
2018-09-19T01:09:48.744Z,99.99
2018-09-19T01:10:48.746Z,99.99
2018-09-19T01:11:48.715Z,99.99
2018-09-19T01:12:48.700Z,99.99
2018-09-19T01:13:48.688Z,99.99
2018-09-19T01:14:48.675Z,99.99
2018-09-19T01:15:48.680Z,99.99
2018-09-19T01:16:48.668Z,99.99
2018-09-19T01:17:48.630Z,99.99
2018-09-19T01:18:48.615Z,99.99
2018-09-19T01:19:48.609Z,99.99
2018-09-19T01:20:48.608Z,99.99
2018-09-19T01:21:48.577Z,99.99
2018-09-19T01:22:48.561Z,99.99
2018-09-19T01:23:48.545Z,99.99
2018-09-19T01:24:48.529Z,99.99
2018-09-19T01:25:48.549Z,99.99
2018-09-19T01:26:48.526Z,99.99
2018-09-19T01:27:48.492Z,99.99
2018-09-19T01:29:09.484Z,99.99
2018-09-19T01:29:48.456Z,99.99
2018-09-19T01:30:48.443Z,99.99
2018-09-19T01:31:48.429Z,99.99
2018-09-19T01:32:48.411Z,99.99
2018-09-19T01:33:48.396Z,99.99
2018-09-19T01:34:48.401Z,99.99
2018-09-19T01:35:48.371Z,99.99
2018-09-19T01:36:48.350Z,99.99
2018-09-19T01:37:48.347Z,99.99
2018-09-19T01:38:48.331Z,99.99
2018-09-19T01:39:48.335Z,99.99
2018-09-19T01:40:48.306Z,99.99
2018-09-19T01:41:48.290Z,99.99
2018-09-19T01:42:48.280Z,99.99
2018-09-19T01:43:48.250Z,99.99
2018-09-19T01:44:48.269Z,99.99
2018-09-19T01:45:48.222Z,99.99
2018-09-19T01:46:48.208Z,99.99
2018-09-19T01:47:48.203Z,99.99
2018-09-19T01:48:48.181Z,99.99
2018-09-19T01:49:48.162Z,99.99
2018-09-19T01:50:48.168Z,99.99
2018-09-19T01:51:48.143Z,99.99
2018-09-19T01:52:48.133Z,99.99
2018-09-19T01:53:48.108Z,99.99
2018-09-19T01:54:48.107Z,99.99
2018-09-19T01:56:09.109Z,99.99
2018-09-19T01:56:48.060Z,99.99
2018-09-19T01:57:48.043Z,99.99
2018-09-19T01:58:48.041Z,99.99
2018-09-19T01:59:48.013Z,99.99
2018-09-19T02:00:48.008Z,99.99
2018-09-19T02:01:47.983Z,99.99
2018-09-19T02:02:47.966Z,99.99
2018-09-19T02:03:47.950Z,99.99
2018-09-19T02:04:47.953Z,99.99
2018-09-19T02:05:47.936Z,99.99
2018-09-19T02:06:47.903Z,99.99
2018-09-19T02:07:47.892Z,99.99
2018-09-19T02:08:47.871Z,99.99
2018-09-19T02:09:47.878Z,99.99
2018-09-19T02:10:47.857Z,99.99
2018-09-19T02:11:47.851Z,99.99
2018-09-19T02:12:47.820Z,99.99
2018-09-19T02:13:47.805Z,99.99
2018-09-19T02:14:47.793Z,99.99
2018-09-19T02:15:47.775Z,99.99
2018-09-19T02:16:47.849Z,99.99
2018-09-19T02:17:47.743Z,99.99
2018-09-19T02:18:47.727Z,99.99
2018-09-19T02:19:47.708Z,99.99
2018-09-19T02:20:47.709Z,99.99
2018-09-19T02:21:47.692Z,99.99
2018-09-19T02:22:47.684Z,99.99
2018-09-19T02:23:47.655Z,99.99
2018-09-19T02:24:47.660Z,99.99
2018-09-19T02:25:47.626Z,99.99
2018-09-19T02:26:47.628Z,99.99
2018-09-19T02:27:47.614Z,99.99
2018-09-19T02:28:47.586Z,99.99
2018-09-19T02:29:47.563Z,99.99
2018-09-19T02:30:47.553Z,99.99
2018-09-19T02:31:47.529Z,99.99
2018-09-19T02:32:47.521Z,99.99
2018-09-19T02:33:47.511Z,99.99
2018-09-19T02:34:47.493Z,99.99
2018-09-19T02:35:47.483Z,99.99
2018-09-19T02:36:47.457Z,99.99
2018-09-19T02:37:47.480Z,99.99
2018-09-19T02:38:47.439Z,99.99
2018-09-19T02:39:47.419Z,99.99
2018-09-19T02:40:47.398Z,99.99
2018-09-19T02:41:47.384Z,99.99
2018-09-19T02:42:47.363Z,99.99
2018-09-19T02:43:47.363Z,99.99
2018-09-19T02:44:47.353Z,99.99
2018-09-19T02:45:47.320Z,99.99
2018-09-19T02:46:47.310Z,99.99
2018-09-19T02:47:47.314Z,99.99
2018-09-19T02:48:47.278Z,99.99
2018-09-19T02:49:47.258Z,99.99
2018-09-19T02:50:47.254Z,99.99
2018-09-19T02:51:47.230Z,99.99
2018-09-19T02:52:47.239Z,99.99
2018-09-19T02:53:47.223Z,99.99
2018-09-19T02:54:47.185Z,99.99
2018-09-19T02:55:47.172Z,99.99
2018-09-19T02:56:47.159Z,99.99
2018-09-19T02:57:47.141Z,99.99
2018-09-19T02:58:47.150Z,99.99
2018-09-19T02:59:47.127Z,99.99
2018-09-19T03:00:47.097Z,99.99
2018-09-19T03:01:47.095Z,99.99
2018-09-19T03:02:47.067Z,99.99
2018-09-19T03:03:47.048Z,99.99
2018-09-19T03:04:47.067Z,99.99
2018-09-19T03:05:47.041Z,99.99
2018-09-19T03:06:47.018Z,99.99
2018-09-19T03:07:46.990Z,99.99
2018-09-19T03:08:46.977Z,99.99
2018-09-19T03:09:46.962Z,99.99
2018-09-19T03:11:07.954Z,99.99
2018-09-19T03:11:46.934Z,99.99
2018-09-19T03:12:46.918Z,99.99
2018-09-19T03:13:46.914Z,99.99
2018-09-19T03:14:46.890Z,99.99
2018-09-19T03:15:46.899Z,99.99
2018-09-19T03:16:46.870Z,99.99
2018-09-19T03:17:47.014Z,99.99
2018-09-19T03:18:46.824Z,99.99
2018-09-19T03:19:46.827Z,99.99
2018-09-19T03:20:46.800Z,99.99
2018-09-19T03:21:46.797Z,99.99
2018-09-19T03:22:46.766Z,99.99
2018-09-19T03:23:46.744Z,99.99
2018-09-19T03:24:46.731Z,99.99
2018-09-19T03:25:46.712Z,99.99
2018-09-19T03:26:46.734Z,99.99
2018-09-19T03:27:46.688Z,99.99
2018-09-19T03:28:46.673Z,99.99
2018-09-19T03:29:46.662Z,99.99
2018-09-19T03:30:46.646Z,99.99
2018-09-19T03:31:46.623Z,99.99
2018-09-19T03:32:46.626Z,99.99
2018-09-19T03:33:46.600Z,99.99
2018-09-19T03:34:46.581Z,99.99
2018-09-19T03:35:46.564Z,99.99
2018-09-19T03:36:46.547Z,99.99
2018-09-19T03:37:46.550Z,99.99
2018-09-19T03:38:46.528Z,99.99
2018-09-19T03:39:46.504Z,99.99
2018-09-19T03:40:46.491Z,99.99
2018-09-19T03:41:46.485Z,99.99
2018-09-19T03:42:46.513Z,99.99
2018-09-19T03:43:46.446Z,99.99
2018-09-19T03:44:46.422Z,99.99
2018-09-19T03:45:46.418Z,99.99
2018-09-19T03:46:46.418Z,99.99
2018-09-19T03:47:46.383Z,99.99
2018-09-19T03:48:46.373Z,99.99
2018-09-19T03:49:46.379Z,99.99
2018-09-19T03:50:46.365Z,99.99
2018-09-19T03:51:46.323Z,99.99
2018-09-19T03:52:46.308Z,99.99
2018-09-19T03:53:46.296Z,99.99
2018-09-19T03:54:46.280Z,99.99
2018-09-19T03:55:46.259Z,99.99
2018-09-19T03:56:46.279Z,99.99
2018-09-19T03:57:46.246Z,99.99
2018-09-19T03:58:46.222Z,99.99
2018-09-19T03:59:46.201Z,99.99
2018-09-19T04:00:46.190Z,99.99
2018-09-19T04:01:46.186Z,99.99
2018-09-19T04:02:46.161Z,99.99
2018-09-19T04:03:46.152Z,99.99
2018-09-19T04:04:46.129Z,99.99
2018-09-19T04:05:46.116Z,99.99
2018-09-19T04:06:46.100Z,99.99
2018-09-19T04:07:46.108Z,99.99
2018-09-19T04:08:46.075Z,99.99
2018-09-19T04:09:46.055Z,99.99
2018-09-19T04:10:46.047Z,99.99
2018-09-19T04:11:46.024Z,99.99
2018-09-19T04:12:46.030Z,99.99
2018-09-19T04:13:46.001Z,99.99
2018-09-19T04:14:45.988Z,99.99
2018-09-19T04:15:45.969Z,99.99
2018-09-19T04:16:45.947Z,99.99
2018-09-19T04:17:45.991Z,99.99
2018-09-19T04:18:45.925Z,99.99
2018-09-19T04:19:45.923Z,99.99
2018-09-19T04:20:45.892Z,99.99
2018-09-19T04:21:45.870Z,99.99
2018-09-19T04:22:45.870Z,99.99
2018-09-19T04:23:45.843Z,99.99
2018-09-19T04:24:45.841Z,99.99
2018-09-19T04:25:45.812Z,99.99
2018-09-19T04:26:45.799Z,99.99
2018-09-19T04:27:45.809Z,99.99
2018-09-19T04:28:45.770Z,99.99
2018-09-19T04:29:45.750Z,99.99
2018-09-19T04:30:45.751Z,99.99
2018-09-19T04:31:45.753Z,99.99
2018-09-19T04:32:45.729Z,99.99
2018-09-19T04:33:45.697Z,99.99
2018-09-19T04:34:45.680Z,99.99
2018-09-19T04:35:45.662Z,99.99
2018-09-19T04:36:45.658Z,99.99
2018-09-19T04:37:45.644Z,99.99
2018-09-19T04:38:45.616Z,99.99
2018-09-19T04:39:45.602Z,99.99
2018-09-19T04:40:45.587Z,99.99
2018-09-19T04:41:45.582Z,99.99
2018-09-19T04:42:45.574Z,99.99
2018-09-19T04:43:45.552Z,99.99
2018-09-19T04:44:45.521Z,99.99
2018-09-19T04:45:45.504Z,99.99
2018-09-19T04:46:45.511Z,99.99
2018-09-19T04:47:45.492Z,99.99
2018-09-19T04:48:45.482Z,99.99
2018-09-19T04:49:45.449Z,99.99
2018-09-19T04:50:45.443Z,99.99
2018-09-19T04:51:45.419Z,99.99
2018-09-19T04:52:45.420Z,99.99
2018-09-19T04:53:45.388Z,99.99
2018-09-19T04:54:45.373Z,99.99
2018-09-19T04:55:45.363Z,99.99
2018-09-19T04:56:45.343Z,99.99
2018-09-19T04:57:45.333Z,99.99
2018-09-19T04:58:45.330Z,99.99
2018-09-19T04:59:45.304Z,99.99
2018-09-19T05:00:45.299Z,99.99
2018-09-19T05:01:45.271Z,99.99
2018-09-19T05:02:45.257Z,99.99
2018-09-19T05:03:45.241Z,99.99
2018-09-19T05:04:45.228Z,99.99
2018-09-19T05:05:45.265Z,99.99
2018-09-19T05:06:45.193Z,99.99
2018-09-19T05:07:45.186Z,99.99
2018-09-19T05:08:45.164Z,99.99
2018-09-19T05:09:45.149Z,99.99
2018-09-19T05:10:45.144Z,99.99
2018-09-19T05:11:45.134Z,99.99
2018-09-19T05:12:45.103Z,99.99
2018-09-19T05:13:45.092Z,99.99
2018-09-19T05:14:45.069Z,99.99
2018-09-19T05:15:45.078Z,99.99
2018-09-19T05:16:45.062Z,99.99
2018-09-19T05:17:45.043Z,99.99
2018-09-19T05:18:45.010Z,99.99
2018-09-19T05:19:45.008Z,99.99
2018-09-19T05:20:44.983Z,99.99
2018-09-19T05:21:44.990Z,99.99
2018-09-19T05:22:44.955Z,99.99
2018-09-19T05:23:44.938Z,99.99
2018-09-19T05:24:44.924Z,99.99
2018-09-19T05:25:44.906Z,99.99
2018-09-19T05:26:44.909Z,99.99
2018-09-19T05:27:44.898Z,99.99
2018-09-19T05:28:44.866Z,99.99
2018-09-19T05:29:44.849Z,99.99
2018-09-19T05:30:44.835Z,99.99
2018-09-19T05:31:44.917Z,99.99
2018-09-19T05:32:44.808Z,99.99
2018-09-19T05:33:44.802Z,99.99
2018-09-19T05:34:44.773Z,99.99
2018-09-19T05:35:44.762Z,99.99
2018-09-19T05:36:44.765Z,99.99
2018-09-19T05:37:44.733Z,99.99
2018-09-19T05:38:44.718Z,99.99
2018-09-19T05:39:44.704Z,99.99
2018-09-19T05:40:44.689Z,99.99
2018-09-19T05:41:44.673Z,99.99
2018-09-19T05:42:44.676Z,99.99
2018-09-19T05:43:44.647Z,99.99
2018-09-19T05:44:44.631Z,99.99
2018-09-19T05:45:44.615Z,99.99
2018-09-19T05:46:44.600Z,99.99
2018-09-19T05:47:44.602Z,99.99
2018-09-19T05:48:44.572Z,99.99
2018-09-19T05:49:44.557Z,99.99
2018-09-19T05:50:44.548Z,99.99
2018-09-19T05:51:44.530Z,99.99
2018-09-19T05:52:44.550Z,99.99
2018-09-19T05:53:44.520Z,99.99
2018-09-19T05:54:44.483Z,99.99
2018-09-19T05:55:44.470Z,99.99
2018-09-19T05:56:44.461Z,99.99
2018-09-19T05:57:44.440Z,99.99
2018-09-19T05:58:44.446Z,99.99
2018-09-19T05:59:44.409Z,99.99
2018-09-19T06:00:44.396Z,99.99
2018-09-19T06:01:44.380Z,99.99
2018-09-19T06:02:44.366Z,99.99
2018-09-19T06:03:44.369Z,99.99
2018-09-19T06:04:44.337Z,99.99
2018-09-19T06:05:44.325Z,99.99
2018-09-19T06:06:44.311Z,99.99
2018-09-19T06:07:44.300Z,99.99
2018-09-19T06:08:44.292Z,99.99
2018-09-19T06:09:44.282Z,99.99
2018-09-19T06:10:44.256Z,99.99
2018-09-19T06:11:44.241Z,99.99
2018-09-19T06:12:44.235Z,99.99
2018-09-19T06:13:44.205Z,99.99
2018-09-19T06:14:44.206Z,99.99
2018-09-19T06:15:44.190Z,99.99
2018-09-19T06:16:44.166Z,99.99
2018-09-19T06:17:44.151Z,99.99
2018-09-19T06:18:44.133Z,99.99
2018-09-19T06:19:44.134Z,99.99
2018-09-19T06:20:44.103Z,99.99
2018-09-19T06:21:44.092Z,99.99
2018-09-19T06:22:44.077Z,99.99
2018-09-19T06:23:44.060Z,99.99
2018-09-19T06:24:44.059Z,99.99
2018-09-19T06:25:44.048Z,99.99
2018-09-19T06:26:44.016Z,99.99
2018-09-19T06:27:44.006Z,99.99
2018-09-19T06:28:43.993Z,99.99
2018-09-19T06:29:43.994Z,99.99
2018-09-19T06:30:43.977Z,99.99
2018-09-19T06:31:43.947Z,99.99
2018-09-19T06:32:43.975Z,99.99
2018-09-19T06:33:43.923Z,99.99
2018-09-19T06:34:43.920Z,99.99
2018-09-19T06:35:43.890Z,99.99
2018-09-19T06:36:43.877Z,99.99
2018-09-19T06:37:43.863Z,99.99
2018-09-19T06:38:43.854Z,99.99
2018-09-19T06:39:43.852Z,99.99
2018-09-19T06:40:43.930Z,99.99
2018-09-19T06:41:43.822Z,99.99
2018-09-19T06:42:43.798Z,99.99
2018-09-19T06:43:43.776Z,99.99
2018-09-19T06:44:43.769Z,99.99
2018-09-19T06:45:43.832Z,99.99
2018-09-19T06:46:43.752Z,98.96
2018-09-19T06:47:43.722Z,99.83
2018-09-19T06:48:43.709Z,98.86
2018-09-19T06:49:43.694Z,98.86
2018-09-19T06:50:43.694Z,98.96
2018-09-19T06:51:43.671Z,98.53
2018-09-19T06:52:43.652Z,98.24
2018-09-19T06:53:43.637Z,97.67
2018-09-19T06:54:43.627Z,97.67
2018-09-19T06:55:43.620Z,97.38
2018-09-19T06:56:43.594Z,97.28
2018-09-19T06:57:43.596Z,96.99
2018-09-19T06:58:43.565Z,96.99
2018-09-19T06:59:43.583Z,96.80
2018-09-19T07:00:43.540Z,96.90
2018-09-19T07:01:43.523Z,96.80
2018-09-19T07:02:43.527Z,95.98
2018-09-19T07:03:43.495Z,96.22
2018-09-19T07:04:43.482Z,95.89
2018-09-19T07:05:43.533Z,95.89
2018-09-19T07:06:43.470Z,95.12
2018-09-19T07:07:43.454Z,95.12
2018-09-19T07:08:43.428Z,95.40
2018-09-19T07:09:43.414Z,95.31
2018-09-19T07:10:43.430Z,94.73
2018-09-19T07:11:43.386Z,94.45
2018-09-19T07:12:43.387Z,94.92
2018-09-19T07:13:43.358Z,94.78
2018-09-19T07:14:43.344Z,94.25
2018-09-19T07:15:43.330Z,94.35
2018-09-19T07:16:43.315Z,94.10
2018-09-19T07:17:43.320Z,94.20
2018-09-19T07:18:43.309Z,94.01
2018-09-19T07:19:43.378Z,94.30
2018-09-19T07:20:43.265Z,94.68
2018-09-19T07:21:43.246Z,94.10
2018-09-19T07:22:43.257Z,94.30
2018-09-19T07:23:43.293Z,93.82
2018-09-19T07:24:43.204Z,93.91
2018-09-19T07:25:43.191Z,93.82
2018-09-19T07:26:43.179Z,93.87
2018-09-19T07:27:43.159Z,93.91
2018-09-19T07:28:43.159Z,94.15
2018-09-19T07:29:43.132Z,93.82
2018-09-19T07:30:43.122Z,94.15
2018-09-19T07:31:43.107Z,94.15
2018-09-19T07:32:43.094Z,93.96
2018-09-19T07:33:43.091Z,93.38
2018-09-19T07:34:43.064Z,94.15
2018-09-19T07:35:43.052Z,94.06
2018-09-19T07:36:43.039Z,93.87
2018-09-19T07:37:43.026Z,93.87
2018-09-19T07:38:43.025Z,93.00
2018-09-19T07:39:43.011Z,93.91
2018-09-19T07:40:42.993Z,94.01
2018-09-19T07:41:42.968Z,93.33
2018-09-19T07:42:42.961Z,92.94
2018-09-19T07:43:42.959Z,92.94
2018-09-19T07:44:42.930Z,92.94
2018-09-19T07:45:42.930Z,92.85
2018-09-19T07:46:42.971Z,92.66
2018-09-19T07:47:42.890Z,92.08
2018-09-19T07:48:42.877Z,92.37
2018-09-19T07:49:42.863Z,92.27
2018-09-19T07:50:42.866Z,92.08
2018-09-19T07:51:42.837Z,91.64
2018-09-19T07:52:42.824Z,91.55
2018-09-19T07:53:42.808Z,91.45
2018-09-19T07:54:42.854Z,91.16
2018-09-19T07:55:42.788Z,90.68
2018-09-19T07:56:42.783Z,90.48
2018-09-19T07:57:42.762Z,91.36
2018-09-19T07:58:42.742Z,90.58
2018-09-19T07:59:42.734Z,90.34
2018-09-19T08:00:42.795Z,90.53
2018-09-19T08:01:42.719Z,89.86
2018-09-19T08:02:42.687Z,89.86
2018-09-19T08:03:42.675Z,90.05
2018-09-19T08:04:42.659Z,89.86
2018-09-19T08:05:42.651Z,89.67
2018-09-19T08:06:42.649Z,89.18
2018-09-19T08:07:42.623Z,89.18
2018-09-19T08:08:42.608Z,89.03
2018-09-19T08:09:42.609Z,88.55
2018-09-19T08:10:42.586Z,88.55
2018-09-19T08:11:42.586Z,88.07
2018-09-19T08:12:42.561Z,88.75
2018-09-19T08:13:42.549Z,88.07
2018-09-19T08:14:42.529Z,87.88
2018-09-19T08:15:42.536Z,88.07
2018-09-19T08:16:42.536Z,87.88
2018-09-19T08:17:42.499Z,87.44
2018-09-19T08:18:42.481Z,87.15
2018-09-19T08:19:42.468Z,86.66
2018-09-19T08:20:42.454Z,86.96
2018-09-19T08:21:42.462Z,86.86
2018-09-19T08:22:42.517Z,86.86
2018-09-19T08:23:42.422Z,86.90
2018-09-19T08:24:42.412Z,87.19
2018-09-19T08:25:42.393Z,86.32
2018-09-19T08:26:42.381Z,85.16
2018-09-19T08:27:42.385Z,85.16
2018-09-19T08:28:42.355Z,84.63
2018-09-19T08:29:42.346Z,84.53
2018-09-19T08:30:42.333Z,84.33
2018-09-19T08:31:42.325Z,84.24
2018-09-19T08:32:42.324Z,84.24
2018-09-19T08:33:42.297Z,83.37
2018-09-19T08:34:42.282Z,83.27
2018-09-19T08:35:42.278Z,83.75
2018-09-19T08:36:42.261Z,83.18
2018-09-19T08:37:42.250Z,83.18
2018-09-19T08:39:03.259Z,83.47
2018-09-19T08:39:42.224Z,82.93
2018-09-19T08:40:42.208Z,82.93
2018-09-19T08:41:42.202Z,81.29
2018-09-19T08:42:42.206Z,81.13
2018-09-19T08:43:42.192Z,80.01
2018-09-19T08:44:42.181Z,79.33
2018-09-19T08:45:42.155Z,78.79
2018-09-19T08:46:42.140Z,77.67
2018-09-19T08:47:42.126Z,76.21
2018-09-19T08:48:42.132Z,74.93
2018-09-19T08:49:42.122Z,73.77
2018-09-19T08:50:42.139Z,74.26
2018-09-19T08:51:42.084Z,73.96
2018-09-19T08:52:42.068Z,71.67
2018-09-19T08:53:42.055Z,70.93
2018-09-19T08:54:42.059Z,70.48
2018-09-19T08:55:42.033Z,68.93
2018-09-19T08:56:42.022Z,69.15
2018-09-19T08:57:42.011Z,68.18
2018-09-19T08:58:41.998Z,67.44
2018-09-19T08:59:42.019Z,66.56
2018-09-19T09:00:41.978Z,66.17
2018-09-19T09:01:41.964Z,66.37
2018-09-19T09:02:41.951Z,66.56
2018-09-19T09:03:41.943Z,66.47
2018-09-19T09:04:41.929Z,65.92
2018-09-19T09:05:41.944Z,65.23
2018-09-19T09:06:41.907Z,64.36
2018-09-19T09:07:41.894Z,65.89
2018-09-19T09:08:41.881Z,66.86
2018-09-19T09:09:41.875Z,65.79
2018-09-19T09:10:41.895Z,67.02
2018-09-19T09:11:41.852Z,66.53
2018-09-19T09:12:41.936Z,65.89
2018-09-19T09:13:41.832Z,65.59
2018-09-19T09:14:41.821Z,65.23
2018-09-19T09:15:41.808Z,65.63
2018-09-19T09:16:41.817Z,65.14
2018-09-19T09:17:41.798Z,64.59
2018-09-19T09:18:41.786Z,64.04
2018-09-19T09:19:41.799Z,63.19
2018-09-19T09:20:41.764Z,62.12
2018-09-19T09:21:41.772Z,61.99
2018-09-19T09:22:41.752Z,62.51
2018-09-19T09:23:41.748Z,62.96
2018-09-19T09:24:41.735Z,62.29
2018-09-19T09:25:41.746Z,62.48
2018-09-19T09:26:41.732Z,62.19
2018-09-19T09:27:41.710Z,62.22
2018-09-19T09:28:41.704Z,62.84
2018-09-19T09:29:41.734Z,63.59
2018-09-19T09:30:41.707Z,64.20
2018-09-19T09:31:41.688Z,64.17
2018-09-19T09:32:41.681Z,64.65
2018-09-19T09:33:41.668Z,65.33
2018-09-19T09:34:41.666Z,64.52
2018-09-19T09:35:41.675Z,63.81
2018-09-19T09:36:41.703Z,63.42
2018-09-19T09:37:41.647Z,64.72
2018-09-19T09:38:41.656Z,64.26
2018-09-19T09:39:41.635Z,64.36
2018-09-19T09:40:41.625Z,63.62
2018-09-19T09:41:41.633Z,65.40
2018-09-19T09:42:41.617Z,66.69
2018-09-19T09:43:41.608Z,68.89
2018-09-19T09:44:41.620Z,68.15
2018-09-19T09:45:41.598Z,69.09
2018-09-19T09:46:41.585Z,69.86
2018-09-19T09:47:41.600Z,68.51
2018-09-19T09:48:41.573Z,67.66
2018-09-19T09:49:41.581Z,68.73
2018-09-19T09:50:41.557Z,67.21
2018-09-19T09:51:41.551Z,65.63
2018-09-19T09:52:41.548Z,66.37
2018-09-19T09:53:41.543Z,67.41
2018-09-19T09:54:41.545Z,68.77
2018-09-19T09:55:41.521Z,67.24
2018-09-19T09:56:41.511Z,65.20
2018-09-19T09:57:41.507Z,65.33
2018-09-19T09:58:41.501Z,65.98
2018-09-19T09:59:41.505Z,65.43
2018-09-19T10:00:41.480Z,64.26
2018-09-19T10:01:41.488Z,64.65
2018-09-19T10:02:41.467Z,64.20
2018-09-19T10:03:41.478Z,64.59
2018-09-19T10:04:41.451Z,65.82
2018-09-19T10:05:41.444Z,67.57
2018-09-19T10:06:41.453Z,66.99
2018-09-19T10:07:41.427Z,66.27
2018-09-19T10:08:41.438Z,67.05
2018-09-19T10:09:41.420Z,67.89
2018-09-19T10:10:41.421Z,69.15
2018-09-19T10:11:41.401Z,69.73
2018-09-19T10:12:41.387Z,69.79
2018-09-19T10:13:41.427Z,70.47
2018-09-19T10:14:41.389Z,67.86
2018-09-19T10:15:41.367Z,65.30
2018-09-19T10:16:41.355Z,65.66
2018-09-19T10:17:41.346Z,66.89
2018-09-19T10:18:41.338Z,67.54
2018-09-19T10:19:41.341Z,68.12
2018-09-19T10:20:41.336Z,69.73
2018-09-19T10:21:41.313Z,69.44
2018-09-19T10:22:41.300Z,69.76
2018-09-19T10:23:41.324Z,69.28
2018-09-19T10:24:41.284Z,68.60
2018-09-19T10:25:41.274Z,67.31
2018-09-19T10:26:41.261Z,67.89
2018-09-19T10:27:41.255Z,68.57
2018-09-19T10:28:41.246Z,67.14
2018-09-19T10:29:41.321Z,67.24
2018-09-19T10:30:41.226Z,67.57
2018-09-19T10:31:41.216Z,67.08
2018-09-19T10:32:41.207Z,66.21
2018-09-19T10:33:41.197Z,67.24
2018-09-19T10:34:41.203Z,66.60
2018-09-19T10:35:41.197Z,66.05
2018-09-19T10:36:41.169Z,66.21
2018-09-19T10:37:41.165Z,65.40
2018-09-19T10:38:41.150Z,64.29
2018-09-19T10:39:41.159Z,63.87
2018-09-19T10:40:41.150Z,63.36
2018-09-19T10:41:41.121Z,65.01
2018-09-19T10:42:41.117Z,64.17
2018-09-19T10:43:41.107Z,63.35
2018-09-19T10:44:42.013Z,61.63
2018-09-19T10:45:41.100Z,60.75
2018-09-19T10:46:41.093Z,60.78
2018-09-19T10:47:41.073Z,60.17
2018-09-19T10:48:41.076Z,60.17
2018-09-19T10:49:41.057Z,61.67
2018-09-19T10:50:41.051Z,63.10
2018-09-19T10:51:41.060Z,64.23
2018-09-19T10:52:41.039Z,63.59
2018-09-19T10:53:41.025Z,61.67
2018-09-19T10:54:41.019Z,61.93
2018-09-19T10:55:41.013Z,64.07
2018-09-19T10:56:41.030Z,61.93
2018-09-19T10:57:41.002Z,62.81
2018-09-19T10:58:40.997Z,64.04
2018-09-19T10:59:40.985Z,64.69
2018-09-19T11:00:40.977Z,64.91
2018-09-19T11:01:40.998Z,62.38
2018-09-19T11:02:40.976Z,59.78
2018-09-19T11:03:40.960Z,61.08
2018-09-19T11:04:40.945Z,59.66
2018-09-19T11:05:40.961Z,60.96
2018-09-19T11:06:40.936Z,62.90
2018-09-19T11:07:40.925Z,62.71
2018-09-19T11:08:40.924Z,60.17
2018-09-19T11:09:40.912Z,58.48
2018-09-19T11:10:40.907Z,56.75
2018-09-19T11:11:40.915Z,56.72
2018-09-19T11:12:40.894Z,56.65
2018-09-19T11:13:40.884Z,56.70
2018-09-19T11:14:40.900Z,58.42
2018-09-19T11:15:40.881Z,58.25
2018-09-19T11:16:40.867Z,57.45
2018-09-19T11:17:40.862Z,57.84
2018-09-19T11:18:40.877Z,57.96
2018-09-19T11:19:40.845Z,56.82
2018-09-19T11:20:40.842Z,56.23
2018-09-19T11:21:40.835Z,56.01
2018-09-19T11:22:40.831Z,56.21
2018-09-19T11:23:41.017Z,56.70
2018-09-19T11:24:40.816Z,57.47
2018-09-19T11:25:40.829Z,56.75
2018-09-19T11:26:40.804Z,56.00
2018-09-19T11:27:40.798Z,54.56
2018-09-19T11:28:40.818Z,55.41
2018-09-19T11:29:40.792Z,56.14
2018-09-19T11:30:40.797Z,56.43
2018-09-19T11:31:40.783Z,56.99
2018-09-19T11:32:40.773Z,56.70
2018-09-19T11:33:40.813Z,56.60
2018-09-19T11:34:40.781Z,56.30
2018-09-19T11:35:40.775Z,55.65
2018-09-19T11:36:40.749Z,55.02
2018-09-19T11:37:40.744Z,54.73
2018-09-19T11:38:40.741Z,53.97
2018-09-19T11:39:40.767Z,54.00
2018-09-19T11:40:40.737Z,54.30
2018-09-19T11:41:40.729Z,51.71
2018-09-19T11:42:40.721Z,51.76
2018-09-19T11:43:40.720Z,52.47
2018-09-19T11:44:40.716Z,52.95
2018-09-19T11:45:40.723Z,51.51
2018-09-19T11:46:40.707Z,51.61
2018-09-19T11:47:40.697Z,53.15
2018-09-19T11:48:40.723Z,51.37
2018-09-19T11:49:40.694Z,52.31
2018-09-19T11:50:40.705Z,53.66
2018-09-19T11:51:40.685Z,54.24
2018-09-19T11:52:40.681Z,55.19
2018-09-19T11:53:40.673Z,54.68
2018-09-19T11:54:40.671Z,55.46
2018-09-19T11:55:40.669Z,55.58
2018-09-19T11:56:40.681Z,53.95
2018-09-19T11:57:40.679Z,53.29
2018-09-19T11:58:40.653Z,53.58
2018-09-19T11:59:40.679Z,52.90
2018-09-19T12:00:40.677Z,53.83
2018-09-19T12:01:40.646Z,52.34
2018-09-19T12:02:40.640Z,52.41
2018-09-19T12:03:40.632Z,52.61
2018-09-19T12:04:40.626Z,53.46
2018-09-19T12:05:40.629Z,54.48
2018-09-19T12:06:40.636Z,54.77
2018-09-19T12:07:40.618Z,54.68
2018-09-19T12:08:40.614Z,54.60
2018-09-19T12:09:40.605Z,54.11
2018-09-19T12:10:40.607Z,54.94
2018-09-19T12:11:41.123Z,55.69
2018-09-19T12:12:40.596Z,54.94
2018-09-19T12:13:40.598Z,55.36
2018-09-19T12:14:40.599Z,54.11
2018-09-19T12:15:40.584Z,53.83
2018-09-19T12:16:40.576Z,54.09
2018-09-19T12:17:40.588Z,55.04
2018-09-19T12:18:40.563Z,56.21
2018-09-19T12:19:40.560Z,56.96
2018-09-19T12:20:40.553Z,57.74
2018-09-19T12:21:40.548Z,57.42
2018-09-19T12:22:40.553Z,58.56
2018-09-19T12:23:40.534Z,59.33
2018-09-19T12:24:40.528Z,58.85
2018-09-19T12:25:40.541Z,59.82
2018-09-19T12:26:40.608Z,59.72
2018-09-19T12:27:40.518Z,58.46
2018-09-19T12:28:40.499Z,58.65
2018-09-19T12:29:40.493Z,58.20
2018-09-19T12:30:40.499Z,58.32
2018-09-19T12:31:40.479Z,58.32
2018-09-19T12:32:40.473Z,56.70
2018-09-19T12:33:40.467Z,56.40
2018-09-19T12:34:40.457Z,56.60
2018-09-19T12:35:40.471Z,56.01
2018-09-19T12:36:40.445Z,55.36
2018-09-19T12:37:40.435Z,54.65
2018-09-19T12:38:40.432Z,54.94
2018-09-19T12:39:40.474Z,54.68
2018-09-19T12:40:40.413Z,53.99
2018-09-19T12:41:40.426Z,54.06
2018-09-19T12:42:40.406Z,54.23
2018-09-19T12:43:40.406Z,55.01
2018-09-19T12:44:40.390Z,55.01
2018-09-19T12:45:40.382Z,54.82
2018-09-19T12:46:40.387Z,55.01
2018-09-19T12:47:40.371Z,54.03
2018-09-19T12:48:40.359Z,53.87
2018-09-19T12:49:40.359Z,54.19
2018-09-19T12:50:40.341Z,52.66
2018-09-19T12:51:40.354Z,51.75
2018-09-19T12:52:40.331Z,51.26